KVGT/VGT METAR and TAF weather

Enter ICAO airport designator
Station Type Date Time Source
KVGT METAR 2018/12/10 13:53 UTC NOAA

KVGT 101353Z 31005KT 10SM CLR 06/01 A3022 RMK AO2 SLP254 T00610011


Station Type Date Time Source
KVGT Decoded METAR 2018/12/10 13:53 UTC NOAA

NORTH LAS VEGAS, NV, United States (KVGT) 36-12N 115-11W
Dec 10, 2018 - 08:53 AM EST / 2018.12.10 1353 UTC
Wind: from the NW (310 degrees) at 6 MPH (5 KT):0
Visibility: 10 mile(s):0
Sky conditions: clear
Temperature: 43.0 F (6.1 C)
Dew Point: 34.0 F (1.1 C)
Relative Humidity: 70%
Pressure (altimeter): 30.22 in. Hg (1023 hPa)
ob: KVGT 101353Z 31005KT 10SM CLR 06/01 A3022 RMK AO2 SLP254 T00610011
cycle: 14

Station Type Date Time Source
KVGT TAF 2018/12/10 12:22 UTC NOAA

TAF KVGT 101120Z 1012/1112 32006KT P6SM BKN200
FM101500 VRB04KT P6SM SCT150 BKN200
FM102000 12005KT P6SM SCT150 BKN200
FM110400 31006KT P6SM SCT150 BKN200


Example: see airport list